Time;durP1;ratioP1;P1;durP2;ratioP2;P2;SDS_P1;SDS_P2;PMS_P1;PMS_P2;Temp;Humidity;BMP_temperature;BMP_pressure;BME280_temperature;BME280_humidity;BME280_pressure;Samples;Min_cycle;Max_cycle;Signal;HPM_P1;HPM_P2
2022/05/19 00:02:10;;;;;;;5.40;4.12;;;;;;;18.81;49.05;100343.84;1825885;78;20171;-68
2022/05/19 00:04:37;;;;;;;6.03;4.50;;;;;;;18.79;49.09;100343.16;1826187;78;20990;-69
2022/05/19 00:07:05;;;;;;;6.10;4.33;;;;;;;18.79;49.12;100339.66;1825013;78;21073;-69
2022/05/19 00:09:32;;;;;;;4.78;4.22;;;;;;;18.78;49.11;100336.67;1826108;78;21045;-68
2022/05/19 00:12:01;;;;;;;6.15;4.58;;;;;;;18.77;49.10;100342.55;1826045;78;21115;-68
2022/05/19 00:14:27;;;;;;;4.75;4.25;;;;;;;18.77;49.11;100333.65;1826089;78;20954;-68
2022/05/19 00:16:57;;;;;;;5.37;4.60;;;;;;;18.76;49.10;100327.97;1826050;78;21037;-68
2022/05/19 00:19:22;;;;;;;6.67;5.00;;;;;;;18.75;49.10;100337.89;1825897;78;21087;-67
2022/05/19 00:21:49;;;;;;;5.53;4.25;;;;;;;18.75;49.10;100337.07;1826219;78;21009;-68
2022/05/19 00:24:16;;;;;;;5.25;4.75;;;;;;;18.75;49.10;100339.77;1821266;78;21127;-68
2022/05/19 00:26:44;;;;;;;5.80;4.37;;;;;;;18.74;49.09;100340.28;1793542;79;21005;-68
2022/05/19 00:29:11;;;;;;;5.97;4.40;;;;;;;18.74;49.10;100346.20;1793653;80;21033;-68
2022/05/19 00:31:37;;;;;;;6.25;4.42;;;;;;;18.73;49.08;100344.52;1793784;79;21053;-68
2022/05/19 00:34:06;;;;;;;5.20;4.40;;;;;;;18.72;49.10;100347.74;1793589;79;20998;-68
2022/05/19 00:36:32;;;;;;;6.90;4.75;;;;;;;18.72;49.11;100344.23;1793521;79;21223;-68
2022/05/19 00:39:01;;;;;;;5.35;4.15;;;;;;;18.71;49.08;100343.91;1793373;79;21005;-68
2022/05/19 00:41:28;;;;;;;6.40;4.28;;;;;;;18.70;49.08;100348.96;1794625;78;21207;-68
2022/05/19 00:44:05;;;;;;;5.35;4.65;;;;;;;18.69;49.09;100346.80;1793816;80;21016;-67
2022/05/19 00:46:54;;;;;;;4.67;3.87;;;;;;;18.67;49.09;100348.34;1793719;80;21076;-68
2022/05/19 00:49:27;;;;;;;5.67;4.17;;;;;;;18.67;49.08;100348.87;1793543;79;21228;-68
2022/05/19 00:52:09;;;;;;;6.03;4.50;;;;;;;18.65;49.15;100350.41;1793903;79;20974;-69
2022/05/19 00:54:45;;;;;;;5.00;4.28;;;;;;;18.65;49.11;100349.06;1793898;79;21037;-67
2022/05/19 00:57:17;;;;;;;5.83;4.67;;;;;;;18.63;49.16;100349.80;1793673;79;21489;-68
2022/05/19 00:59:52;;;;;;;7.10;4.65;;;;;;;18.63;49.15;100352.48;1806813;78;21057;-70
2022/05/19 01:02:23;;;;;;;4.75;3.87;;;;;;;18.62;49.14;100347.30;1826008;78;21123;-68
2022/05/19 01:04:56;;;;;;;5.25;4.22;;;;;;;18.60;49.14;100346.68;1826028;78;21028;-68
2022/05/19 01:07:28;;;;;;;5.95;5.35;;;;;;;18.60;49.18;100349.37;1826419;78;21584;-68
2022/05/19 01:09:55;;;;;;;5.90;3.95;;;;;;;18.59;49.16;100354.46;1826131;78;21036;-68
2022/05/19 01:12:24;;;;;;;6.08;4.60;;;;;;;18.58;49.17;100352.30;1826118;78;20986;-68
2022/05/19 01:14:51;;;;;;;8.15;4.62;;;;;;;18.58;49.15;100365.75;1825726;78;21127;-68
2022/05/19 01:17:18;;;;;;;5.53;4.50;;;;;;;18.57;49.16;100358.70;1825358;78;21013;-68
2022/05/19 01:19:50;;;;;;;4.90;4.08;;;;;;;18.57;49.17;100353.84;1826020;78;21045;-68
2022/05/19 01:22:33;;;;;;;;;;;;;;;18.56;49.18;100358.89;1811064;78;20990;-69
2022/05/19 01:25:12;;;;;;;6.15;4.50;;;;;;;18.56;49.17;100358.40;1825776;78;20190;-68
2022/05/19 01:27:39;;;;;;;5.55;4.33;;;;;;;18.52;49.19;100354.44;1815031;78;21140;-68
2022/05/19 01:30:08;;;;;;;4.72;4.25;;;;;;;18.51;49.20;100359.52;1825865;78;20973;-69
2022/05/19 01:32:35;;;;;;;5.45;4.45;;;;;;;18.51;49.22;100360.05;1825009;78;20982;-68
2022/05/19 01:35:02;;;;;;;5.15;4.30;;;;;;;18.49;49.20;100357.55;1826110;78;21678;-68
2022/05/19 01:37:31;;;;;;;5.97;4.10;;;;;;;18.49;49.22;100352.17;1823421;78;21065;-67
2022/05/19 01:40:37;;;;;;;6.28;5.10;;;;;;;18.50;49.21;100357.03;1814422;78;22204;-68
2022/05/19 01:43:38;;;;;;;5.03;4.45;;;;;;;18.48;49.21;100358.58;1814420;79;21061;-68
2022/05/19 01:46:19;;;;;;;5.17;4.20;;;;;;;18.47;49.21;100360.45;1789374;78;21045;-67
2022/05/19 01:49:00;;;;;;;5.65;4.25;;;;;;;18.45;49.23;100361.69;1814487;78;20970;-67
2022/05/19 01:51:40;;;;;;;4.85;4.30;;;;;;;18.43;49.23;100359.73;1782924;80;21026;-68
2022/05/19 01:54:37;;;;;;;5.00;4.15;;;;;;;18.42;49.25;100376.36;1782379;80;21132;-69
2022/05/19 01:57:14;;;;;;;5.20;4.37;;;;;;;18.41;49.26;100369.86;1782441;79;20990;-68
2022/05/19 02:00:09;;;;;;;5.75;4.15;;;;;;;18.40;49.25;100373.57;1807453;79;21537;-67
2022/05/19 02:02:53;;;;;;;5.75;4.30;;;;;;;18.39;49.27;100374.62;1814830;79;21525;-68
2022/05/19 02:05:51;;;;;;;5.30;4.40;;;;;;;18.38;49.28;100375.64;1814658;78;21626;-68
2022/05/19 02:08:31;;;;;;;5.03;4.22;;;;;;;18.36;49.29;100373.14;1813667;79;21849;-69
2022/05/19 02:10:59;;;;;;;6.67;5.17;;;;;;;18.34;49.29;100371.17;1806254;79;21025;-68
2022/05/19 02:13:26;;;;;;;5.17;3.70;;;;;;;18.34;49.29;100379.25;1814769;79;20987;-69
2022/05/19 02:15:53;;;;;;;5.00;4.17;;;;;;;18.34;49.31;100381.94;1814616;79;21098;-67
2022/05/19 02:18:24;;;;;;;5.15;4.45;;;;;;;18.34;49.30;100373.05;1814583;78;21037;-68
2022/05/19 02:20:52;;;;;;;6.03;4.60;;;;;;;18.33;49.32;100381.64;1815125;79;21144;-68
2022/05/19 02:23:19;;;;;;;5.30;3.92;;;;;;;18.33;49.32;100379.45;1813264;78;21054;-68
2022/05/19 02:25:49;;;;;;;5.95;4.65;;;;;;;18.33;49.33;100383.48;1814717;79;21490;-68
2022/05/19 02:28:27;;;;;;;5.65;4.17;;;;;;;18.32;49.29;100381.31;1814720;79;21038;-68
2022/05/19 02:30:55;;;;;;;7.37;4.83;;;;;;;18.32;49.29;100382.66;1814622;78;21206;-68
2022/05/19 02:33:22;;;;;;;6.15;4.72;;;;;;;18.31;49.29;100387.74;1814873;79;21073;-68
2022/05/19 02:35:49;;;;;;;6.30;4.37;;;;;;;18.32;49.29;100389.91;1814543;78;21046;-68
2022/05/19 02:38:18;;;;;;;5.47;4.42;;;;;;;18.31;49.30;100393.13;1814466;77;21065;-68
2022/05/19 02:40:44;;;;;;;5.65;4.00;;;;;;;18.32;49.29;100393.94;1813555;79;21498;-68
2022/05/19 02:43:11;;;;;;;6.35;4.35;;;;;;;18.31;49.26;100389.58;1814565;79;21065;-67
2022/05/19 02:45:38;;;;;;;5.30;4.30;;;;;;;18.30;49.27;100398.17;1814646;78;21243;-67
2022/05/19 02:48:07;;;;;;;6.25;4.60;;;;;;;18.30;49.27;100395.48;1814559;79;21026;-67
2022/05/19 02:50:34;;;;;;;6.85;5.10;;;;;;;18.31;49.25;100397.65;1814585;78;21248;-68
2022/05/19 02:53:01;;;;;;;5.83;4.10;;;;;;;18.30;49.26;100406.23;1814505;79;20986;-67
2022/05/19 02:55:27;;;;;;;5.22;4.30;;;;;;;18.30;49.29;100399.52;1814733;79;20975;-67
2022/05/19 02:57:54;;;;;;;6.78;4.58;;;;;;;18.30;49.29;100404.89;1801898;78;21457;-68
2022/05/19 03:00:23;;;;;;;5.75;4.53;;;;;;;18.29;49.28;100397.84;1814654;79;21002;-69
2022/05/19 03:02:50;;;;;;;5.55;4.62;;;;;;;18.30;49.26;100398.70;1814552;79;21055;-68
2022/05/19 03:05:20;;;;;;;4.92;4.20;;;;;;;18.30;49.27;100406.77;1814679;79;21013;-68
2022/05/19 03:07:48;;;;;;;5.30;4.45;;;;;;;18.29;49.27;100403.22;1814838;78;21065;-68
2022/05/19 03:10:16;;;;;;;6.37;4.80;;;;;;;18.28;49.29;100401.06;1814542;79;21124;-68
2022/05/19 03:12:43;;;;;;;6.33;4.50;;;;;;;18.28;49.32;100404.27;1814573;78;20998;-68
2022/05/19 03:15:10;;;;;;;6.28;4.87;;;;;;;18.28;49.32;100410.47;1796379;79;20987;-67
2022/05/19 03:17:37;;;;;;;7.25;4.83;;;;;;;18.28;49.33;100411.81;1782440;80;21128;-68
2022/05/19 03:20:07;;;;;;;6.35;4.40;;;;;;;18.27;49.32;100411.52;1782533;80;21526;-68
2022/05/19 03:22:34;;;;;;;7.05;4.87;;;;;;;18.27;49.34;100414.20;1782486;79;21896;-70
2022/05/19 03:25:00;;;;;;;7.83;5.42;;;;;;;18.28;49.33;100413.69;1782422;80;21073;-67
2022/05/19 03:27:27;;;;;;;6.10;4.47;;;;;;;18.27;49.34;100416.90;1782589;80;21499;-69
2022/05/19 03:29:54;;;;;;;5.60;4.20;;;;;;;18.27;49.38;100412.86;1782562;80;20980;-69
2022/05/19 03:32:20;;;;;;;6.20;4.17;;;;;;;18.27;49.36;100418.23;1783559;79;21042;-68
2022/05/19 03:34:47;;;;;;;5.37;4.30;;;;;;;18.28;49.39;100415.03;1782561;80;21127;-67
2022/05/19 03:37:16;;;;;;;5.37;4.55;;;;;;;18.29;49.38;100423.39;1782458;79;21561;-68
2022/05/19 03:39:43;;;;;;;5.95;4.72;;;;;;;18.28;49.37;100425.27;1792066;80;21056;-67
2022/05/19 03:42:11;;;;;;;6.50;4.70;;;;;;;18.28;49.40;100422.57;1793577;79;21489;-68
2022/05/19 03:44:39;;;;;;;5.50;4.60;;;;;;;18.28;49.41;100427.95;1793999;80;21033;-68
2022/05/19 03:47:05;;;;;;;5.65;4.25;;;;;;;18.28;49.42;100430.64;1794002;80;21782;-69
2022/05/19 03:49:33;;;;;;;6.62;4.90;;;;;;;18.29;49.47;100431.46;1794642;78;21029;-68
2022/05/19 03:52:00;;;;;;;6.08;4.45;;;;;;;18.28;49.44;100433.33;1793627;80;21032;-68
2022/05/19 03:54:27;;;;;;;5.30;3.87;;;;;;;18.28;49.42;100438.70;1793665;79;21057;-68
2022/05/19 03:56:53;;;;;;;5.53;5.00;;;;;;;18.30;49.45;100443.07;1794804;78;21430;-68
2022/05/19 03:59:19;;;;;;;5.37;4.08;;;;;;;18.31;49.47;100443.37;1826110;78;21109;-69
2022/05/19 04:01:46;;;;;;;5.53;4.37;;;;;;;18.31;49.45;100440.19;1825977;78;21494;-68
2022/05/19 04:04:12;;;;;;;5.75;4.30;;;;;;;18.33;49.44;100445.34;1826024;78;21129;-68
2022/05/19 04:06:39;;;;;;;6.00;4.95;;;;;;;18.32;49.44;100445.86;1825081;78;20998;-68
2022/05/19 04:09:05;;;;;;;7.47;5.00;;;;;;;18.34;49.45;100449.70;1826644;78;21044;-68
2022/05/19 04:11:32;;;;;;;6.00;4.72;;;;;;;18.35;49.47;100449.51;1826175;78;21127;-68
2022/05/19 04:13:59;;;;;;;6.10;4.62;;;;;;;18.36;49.48;100453.84;1826200;78;21092;-68
2022/05/19 04:16:26;;;;;;;8.43;5.62;;;;;;;18.37;49.48;100451.97;1826115;78;21525;-68
2022/05/19 04:18:52;;;;;;;5.28;4.30;;;;;;;18.39;49.47;100455.31;1826127;78;20989;-68
2022/05/19 04:21:20;;;;;;;6.37;4.83;;;;;;;18.40;49.46;100448.36;1826374;78;21490;-68
2022/05/19 04:23:47;;;;;;;5.75;4.58;;;;;;;18.42;49.48;100454.37;1824931;78;21135;-67
2022/05/19 04:26:14;;;;;;;5.25;4.45;;;;;;;18.43;49.45;100455.22;1826026;78;20974;-68
2022/05/19 04:28:42;;;;;;;5.22;4.05;;;;;;;18.44;49.44;100454.17;1826095;78;20990;-68
2022/05/19 04:31:08;;;;;;;7.55;4.62;;;;;;;18.46;49.43;100454.27;1826165;78;21493;-68
2022/05/19 04:33:34;;;;;;;5.53;4.28;;;;;;;18.49;49.44;100457.63;1826179;78;21068;-68
2022/05/19 04:36:03;;;;;;;7.35;5.28;;;;;;;18.44;49.42;100452.30;1825959;78;21140;-68
2022/05/19 04:38:31;;;;;;;6.28;4.90;;;;;;;18.51;49.40;100457.72;1823176;77;21530;-69
2022/05/19 04:41:03;;;;;;;6.17;4.37;;;;;;;18.52;49.38;100460.70;1813737;79;21049;-69
2022/05/19 04:43:30;;;;;;;6.70;5.00;;;;;;;18.54;49.39;100463.20;1814663;79;26571;-70
2022/05/19 04:45:56;;;;;;;5.05;4.55;;;;;;;18.55;49.42;100464.88;1814622;79;21002;-69
2022/05/19 04:48:24;;;;;;;5.90;4.53;;;;;;;18.56;49.40;100461.98;1814556;79;21775;-69
2022/05/19 04:50:57;;;;;;;6.92;4.67;;;;;;;18.58;49.43;100460.41;1814521;79;21924;-68
2022/05/19 04:53:24;;;;;;;5.67;4.55;;;;;;;18.59;49.44;100458.05;1814886;78;21015;-68
2022/05/19 04:55:52;;;;;;;6.15;4.70;;;;;;;18.61;49.40;100457.33;1814132;78;21645;-69
2022/05/19 04:58:19;;;;;;;5.53;4.42;;;;;;;18.63;49.36;100463.34;1814286;79;21061;-68
2022/05/19 05:00:48;;;;;;;6.67;4.53;;;;;;;18.63;49.40;100463.34;1814778;79;21766;-68
2022/05/19 05:03:14;;;;;;;5.72;4.65;;;;;;;18.65;49.42;100460.75;1814664;78;21578;-69
2022/05/19 05:05:40;;;;;;;4.83;4.42;;;;;;;18.66;49.37;100467.80;1814633;79;21018;-69
2022/05/19 05:08:08;;;;;;;5.00;4.10;;;;;;;18.67;49.35;100468.63;1814499;78;20987;-68
2022/05/19 05:10:36;;;;;;;5.90;4.37;;;;;;;18.69;49.35;100472.46;1814562;78;20971;-69
2022/05/19 05:13:09;;;;;;;4.70;3.92;;;;;;;18.71;49.33;100467.70;1813399;79;21229;-68
2022/05/19 05:15:35;;;;;;;;;;;;;;;18.72;49.34;100468.03;1817507;78;21035;-68
2022/05/19 05:18:02;;;;;;;7.40;4.90;;;;;;;18.74;49.33;100461.92;1814646;79;20412;-68
2022/05/19 05:20:29;;;;;;;4.75;4.20;;;;;;;18.73;49.39;100464.29;1814591;79;21054;-68
2022/05/19 05:22:56;;;;;;;8.10;4.75;;;;;;;18.75;49.37;100471.64;1814883;79;21041;-69
2022/05/19 05:25:22;;;;;;;5.03;4.37;;;;;;;18.75;49.35;100468.42;1814632;79;21168;-68
2022/05/19 05:27:50;;;;;;;6.22;4.15;;;;;;;18.77;49.33;100465.53;1814497;79;20974;-67
2022/05/19 05:30:16;;;;;;;5.70;4.37;;;;;;;18.79;49.34;100464.29;1813418;78;21072;-69
2022/05/19 05:32:44;;;;;;;5.67;4.40;;;;;;;18.81;49.33;100464.12;1814651;79;21458;-69
2022/05/19 05:35:10;;;;;;;6.90;4.28;;;;;;;18.83;49.33;100464.74;1814608;79;21026;-68
2022/05/19 05:37:37;;;;;;;5.60;3.98;;;;;;;18.85;49.36;100466.71;1814450;79;21117;-68
2022/05/19 05:40:10;;;;;;;5.30;4.28;;;;;;;18.87;49.38;100471.37;1822876;78;21033;-68
2022/05/19 05:42:37;;;;;;;;;;;;;;;18.89;49.38;100473.87;1829099;78;21048;-69
2022/05/19 05:45:06;;;;;;;5.85;4.50;;;;;;;18.91;49.38;100468.61;1826035;78;20163;-69
2022/05/19 05:47:33;;;;;;;4.78;3.85;;;;;;;18.90;49.43;100468.28;1824969;78;21052;-68
2022/05/19 05:50:01;;;;;;;5.08;4.45;;;;;;;18.91;49.46;100464.57;1826015;78;21446;-68
2022/05/19 05:52:28;;;;;;;4.85;4.35;;;;;;;18.94;49.57;100469.52;1826075;78;21038;-71
2022/05/19 05:54:55;;;;;;;6.22;4.90;;;;;;;18.96;49.64;100470.15;1826050;78;21072;-69
2022/05/19 05:57:22;;;;;;;5.35;3.92;;;;;;;18.98;49.59;100473.47;1825901;78;21009;-68
2022/05/19 05:59:48;;;;;;;5.53;4.22;;;;;;;19.00;49.65;100478.13;1826471;78;21005;-69
2022/05/19 06:02:15;;;;;;;5.30;4.28;;;;;;;19.01;49.73;100481.67;1826237;78;21128;-68
2022/05/19 06:04:43;;;;;;;5.30;4.03;;;;;;;19.03;49.72;100475.03;1825301;78;21002;-69
2022/05/19 06:07:10;;;;;;;5.83;4.47;;;;;;;19.05;49.76;100476.17;1826448;78;20985;-69
2022/05/19 06:09:39;;;;;;;5.03;4.53;;;;;;;19.08;49.76;100474.41;1826222;78;21020;-69
2022/05/19 06:12:08;;;;;;;6.42;4.10;;;;;;;19.10;49.73;100480.94;1826212;78;21091;-68
2022/05/19 06:14:35;;;;;;;4.40;3.85;;;;;;;19.12;49.68;100489.11;1826281;78;21114;-68
2022/05/19 06:17:02;;;;;;;4.85;3.65;;;;;;;19.14;49.79;100486.22;1826145;78;21287;-68
2022/05/19 06:19:29;;;;;;;4.65;3.80;;;;;;;19.16;49.83;100488.19;1826295;78;21038;-69
2022/05/19 06:21:55;;;;;;;5.30;4.40;;;;;;;19.18;49.87;100492.84;1811850;78;21534;-69
2022/05/19 06:24:21;;;;;;;5.85;4.45;;;;;;;19.19;49.83;100486.44;1793680;80;20997;-69
2022/05/19 06:26:48;;;;;;;4.58;3.87;;;;;;;19.19;49.81;100489.13;1793830;79;21133;-68
2022/05/19 06:29:15;;;;;;;5.45;4.00;;;;;;;19.22;49.85;100492.77;1793556;79;21038;-68
2022/05/19 06:31:41;;;;;;;4.78;4.22;;;;;;;19.23;49.97;100493.06;1793730;80;20997;-69
2022/05/19 06:34:07;;;;;;;4.80;3.98;;;;;;;19.24;49.93;100490.70;1793856;79;21456;-69
2022/05/19 06:36:34;;;;;;;5.97;4.15;;;;;;;19.26;49.97;100489.97;1793686;80;21033;-69
2022/05/19 06:39:00;;;;;;;5.12;4.15;;;;;;;19.28;49.96;100489.24;1794880;78;21331;-70
2022/05/19 06:44:12;;;;;;;5.62;4.03;;;;;;;19.31;50.00;100483.95;1793750;80;21072;-69
2022/05/19 06:46:39;;;;;;;4.85;4.00;;;;;;;19.33;50.06;100494.00;1793778;80;21033;-69
2022/05/19 06:49:06;;;;;;;4.65;3.85;;;;;;;19.34;50.03;100490.28;1793750;80;21061;-69
2022/05/19 06:51:33;;;;;;;5.42;3.95;;;;;;;19.36;50.10;100490.38;1793705;80;21505;-69
2022/05/19 06:54:00;;;;;;;4.47;3.90;;;;;;;19.37;50.12;100487.16;1793690;80;21098;-70
2022/05/19 06:56:27;;;;;;;4.85;4.15;;;;;;;19.37;50.18;100484.46;1803167;78;21006;-68
2022/05/19 06:58:53;;;;;;;4.87;3.72;;;;;;;19.39;50.17;100482.39;1826211;78;20982;-68
2022/05/19 07:01:20;;;;;;;6.00;4.50;;;;;;;19.40;50.20;100480.02;1826164;78;21006;-68
2022/05/19 07:03:46;;;;;;;6.50;4.22;;;;;;;19.41;50.20;100478.47;1826417;78;21120;-68
2022/05/19 07:06:12;;;;;;;5.12;4.00;;;;;;;19.42;50.21;100477.41;1826085;78;20990;-68
2022/05/19 07:08:41;;;;;;;4.72;3.67;;;;;;;19.45;50.30;100474.81;1826210;78;21005;-69
2022/05/19 07:11:24;;;;;;;4.12;3.72;;;;;;;19.48;50.24;100473.59;1826035;78;21037;-68
2022/05/19 07:13:38;;;;;;;4.97;3.60;;;;;;;19.48;50.24;100470.89;1823170;78;21064;-68
2022/05/19 07:16:05;;;;;;;5.67;3.98;;;;;;;19.50;50.23;100468.81;1826178;78;21289;-68
2022/05/19 07:18:31;;;;;;;4.67;4.00;;;;;;;19.50;50.33;100473.67;1826102;78;21495;-69
2022/05/19 07:20:58;;;;;;;4.47;3.80;;;;;;;19.53;50.25;100473.77;1826214;78;20986;-68
2022/05/19 07:23:25;;;;;;;5.25;3.80;;;;;;;19.56;50.23;100476.05;1826382;78;21072;-69
2022/05/19 07:25:53;;;;;;;4.33;3.72;;;;;;;19.57;50.32;100477.73;1826181;78;21037;-69
2022/05/19 07:28:20;;;;;;;4.90;3.62;;;;;;;19.58;50.28;100478.02;1826127;78;21133;-68
2022/05/19 07:30:47;;;;;;;4.78;4.03;;;;;;;19.60;50.34;100473.25;1825010;78;21513;-68
2022/05/19 07:33:15;;;;;;;4.75;4.03;;;;;;;19.62;50.32;100473.86;1826155;78;20989;-69
2022/05/19 07:35:45;;;;;;;4.20;3.80;;;;;;;19.63;50.31;100476.88;1826090;78;20994;-68
2022/05/19 07:38:11;;;;;;;4.50;4.03;;;;;;;19.65;50.17;100473.46;1826395;78;21068;-68
2022/05/19 07:40:38;;;;;;;4.08;3.67;;;;;;;19.67;50.13;100478.12;1817837;78;21108;-68
2022/05/19 07:45:50;;;;;;;4.33;3.92;;;;;;;19.71;50.13;100468.57;1814408;79;21013;-69
2022/05/19 07:48:17;;;;;;;4.55;3.90;;;;;;;19.73;50.14;100461.66;1813705;79;21006;-68
2022/05/19 07:50:43;;;;;;;4.17;3.77;;;;;;;19.75;50.17;100467.66;1814662;79;21046;-69
2022/05/19 07:53:10;;;;;;;4.12;3.70;;;;;;;19.76;50.22;100462.56;1814470;79;22175;-69
2022/05/19 07:55:36;;;;;;;3.50;3.20;;;;;;;19.78;50.22;100468.57;1814513;78;21570;-70
2022/05/19 07:58:04;;;;;;;3.92;3.52;;;;;;;19.80;50.21;100463.83;1814548;78;21070;-68
2022/05/19 08:00:31;;;;;;;4.30;3.30;;;;;;;19.81;50.26;100455.50;1814501;78;21010;-68
2022/05/19 08:02:59;;;;;;;4.45;3.85;;;;;;;19.83;50.25;100449.38;1813628;78;21006;-69
2022/05/19 08:05:26;;;;;;;3.90;3.50;;;;;;;19.84;50.20;100449.70;1814590;79;21124;-69
2022/05/19 08:07:52;;;;;;;4.12;3.15;;;;;;;19.87;50.14;100448.97;1814588;78;21006;-69
2022/05/19 08:10:23;;;;;;;4.08;3.62;;;;;;;19.89;50.06;100444.19;1814486;79;21010;-68
2022/05/19 08:15:45;;;;;;;4.22;3.40;;;;;;;19.92;50.08;100450.52;1814645;78;21542;-69
2022/05/19 08:18:17;;;;;;;3.75;3.33;;;;;;;19.93;49.95;100448.94;1814999;79;21083;-68
2022/05/19 08:20:56;;;;;;;4.17;3.77;;;;;;;19.95;49.89;100450.08;1813435;78;20990;-70
2022/05/19 08:23:32;;;;;;;3.92;3.50;;;;;;;19.97;49.84;100450.69;1814653;79;20986;-69
2022/05/19 08:26:00;;;;;;;5.08;3.15;;;;;;;19.99;49.86;100449.95;1814617;79;20991;-69
2022/05/19 08:28:29;;;;;;;3.90;3.50;;;;;;;20.00;49.75;100446.23;1814668;79;21029;-69
2022/05/19 08:30:58;;;;;;;3.60;3.17;;;;;;;20.01;49.74;100433.89;1814518;78;21137;-69
2022/05/19 08:33:25;;;;;;;3.60;3.20;;;;;;;20.03;49.69;100437.20;1814571;79;21015;-67
2022/05/19 08:35:52;;;;;;;4.42;3.52;;;;;;;20.05;49.64;100431.59;1814957;78;20978;-69
2022/05/19 08:38:19;;;;;;;3.92;3.50;;;;;;;20.07;49.65;100432.21;1813362;78;20979;-68
2022/05/19 08:40:53;;;;;;;4.70;3.70;;;;;;;20.11;49.70;100435.28;1821964;78;21013;-69
2022/05/19 08:43:30;;;;;;;4.55;3.55;;;;;;;20.11;49.59;100428.53;1826068;78;21472;-69
2022/05/19 08:46:00;;;;;;;3.83;3.50;;;;;;;20.14;49.58;100430.29;1826011;78;21001;-69
2022/05/19 08:48:27;;;;;;;4.05;3.65;;;;;;;20.15;49.60;100423.05;1826395;78;21072;-69
2022/05/19 08:50:57;;;;;;;4.92;3.80;;;;;;;20.17;49.62;100428.52;1826129;78;21063;-69
2022/05/19 08:53:30;;;;;;;3.92;3.60;;;;;;;20.19;49.55;100425.09;1825992;78;21025;-69
2022/05/19 08:56:25;;;;;;;4.08;3.62;;;;;;;20.21;49.58;100427.58;1813551;78;21092;-69
2022/05/19 08:59:29;;;;;;;4.12;3.72;;;;;;;20.23;49.56;100427.66;1825955;78;21185;-70
2022/05/19 09:02:15;;;;;;;4.12;3.72;;;;;;;20.26;49.57;100418.83;1826499;78;20998;-69
2022/05/19 09:05:09;;;;;;;4.12;3.58;;;;;;;20.27;49.49;100419.97;1826038;78;21025;-70
2022/05/19 09:07:59;;;;;;;4.12;3.80;;;;;;;20.30;49.48;100426.80;1826214;78;20998;-69
2022/05/19 09:10:46;;;;;;;4.12;3.70;;;;;;;20.30;49.39;100424.95;1826031;78;21224;-70
2022/05/19 09:13:31;;;;;;;4.28;3.87;;;;;;;20.32;49.46;100421.51;1824941;78;20986;-69
2022/05/19 09:16:08;;;;;;;4.25;3.85;;;;;;;20.36;49.50;100419.21;1826080;78;20985;-69
2022/05/19 09:18:37;;;;;;;3.65;3.33;;;;;;;20.37;49.57;100413.57;1826274;78;21010;-70
2022/05/19 09:21:05;;;;;;;3.45;3.10;;;;;;;20.40;49.51;100407.76;1826038;78;20990;-70
2022/05/19 09:23:35;;;;;;;4.50;3.80;;;;;;;20.43;49.50;100410.53;1826327;78;21085;-68
2022/05/19 09:26:25;;;;;;;4.58;3.85;;;;;;;20.48;49.49;100416.65;1825810;78;21018;-70
2022/05/19 09:28:59;;;;;;;3.47;3.17;;;;;;;20.50;49.39;100411.33;1812406;78;21013;-69
2022/05/19 09:31:36;;;;;;;;;;;;;;;20.54;49.38;100408.50;1796150;79;20978;-69
2022/05/19 09:34:03;;;;;;;3.55;3.25;;;;;;;20.58;49.36;100400.80;1793479;80;20173;-70
2022/05/19 09:36:32;;;;;;;4.53;4.12;;;;;;;20.60;49.35;100402.78;1793452;79;21145;-70
2022/05/19 09:39:02;;;;;;;3.87;3.58;;;;;;;20.64;49.36;100399.13;1793573;80;21029;-69
2022/05/19 09:41:40;;;;;;;4.12;3.72;;;;;;;20.68;49.43;100400.34;1784904;78;20993;-68
2022/05/19 09:44:13;;;;;;;4.70;4.00;;;;;;;20.72;49.46;100400.20;1782443;79;21005;-69
2022/05/19 09:46:47;;;;;;;4.15;3.70;;;;;;;20.77;49.44;100397.69;1783697;79;21041;-70
2022/05/19 09:49:29;;;;;;;4.00;3.60;;;;;;;20.82;49.49;100395.14;1782820;79;21116;-68
2022/05/19 09:52:01;;;;;;;3.30;3.00;;;;;;;20.87;49.52;100399.36;1782512;80;22011;-69
2022/05/19 09:55:42;;;;;;;3.50;3.20;;;;;;;20.99;49.69;100377.87;1834518;77;22238;-69
2022/05/19 09:58:15;;;;;;;4.22;3.40;;;;;;;21.00;49.75;100384.41;1792332;80;20930;-69
2022/05/19 10:00:45;;;;;;;4.30;3.50;;;;;;;21.07;49.73;100379.46;1792715;80;21777;-69
2022/05/19 10:03:27;;;;;;;3.47;3.00;;;;;;;21.12;49.69;100381.80;1773720;80;21526;-69
2022/05/19 10:05:57;;;;;;;3.37;3.08;;;;;;;21.17;49.75;100376.57;1742956;81;21016;-69
2022/05/19 10:08:41;;;;;;;3.58;3.27;;;;;;;21.24;49.71;100379.20;1761058;81;21075;-68
2022/05/19 10:11:21;;;;;;;3.50;3.02;;;;;;;21.29;49.71;100376.66;1766602;81;21045;-69
2022/05/19 10:13:56;;;;;;;3.60;3.30;;;;;;;21.34;49.72;100376.83;1761128;81;21790;-69
2022/05/19 10:16:44;;;;;;;3.80;3.50;;;;;;;21.41;49.67;100376.21;1754965;81;20957;-69
2022/05/19 10:19:53;;;;;;;3.65;3.35;;;;;;;21.48;49.67;100373.98;1761605;80;21033;-69
2022/05/19 10:22:53;;;;;;;3.65;3.30;;;;;;;21.57;49.51;100366.70;1761234;81;21023;-68
2022/05/19 10:25:58;;;;;;;3.92;3.45;;;;;;;21.66;49.42;100369.13;1761076;81;21647;-69
2022/05/19 10:31:48;;;;;;;5.40;3.67;;;;;;;21.82;49.20;100362.27;1761133;81;21092;-68
2022/05/19 10:34:50;;;;;;;3.20;2.83;;;;;;;21.89;49.04;100357.08;1764726;80;21021;-69
2022/05/19 10:37:58;;;;;;;3.72;3.33;;;;;;;21.96;48.97;100348.36;1761622;80;21553;-70
2022/05/19 10:40:57;;;;;;;3.87;3.47;;;;;;;22.05;48.88;100354.27;1761054;81;21069;-70
2022/05/19 10:43:45;;;;;;;3.62;3.30;;;;;;;22.14;48.82;100353.44;1760871;81;21155;-69
2022/05/19 10:46:14;;;;;;;3.10;2.80;;;;;;;22.23;48.79;100348.51;1760947;81;20983;-69
2022/05/19 10:49:15;;;;;;;3.40;3.10;;;;;;;22.30;48.74;100343.33;1761049;81;21029;-69
2022/05/19 10:51:56;;;;;;;3.90;3.20;;;;;;;22.38;48.74;100344.88;1761092;81;21041;-70
2022/05/19 10:54:42;;;;;;;3.95;3.12;;;;;;;22.49;48.68;100337.86;1764300;80;21093;-69
2022/05/19 10:57:21;;;;;;;3.40;3.10;;;;;;;22.56;48.65;100336.70;1781376;80;21109;-69
2022/05/19 11:00:17;;;;;;;3.70;3.30;;;;;;;22.65;48.61;100327.69;1781481;80;20987;-70
2022/05/19 11:03:01;;;;;;;4.25;3.12;;;;;;;22.75;48.56;100331.17;1781504;80;21034;-69
2022/05/19 11:05:58;;;;;;;3.42;3.12;;;;;;;22.85;48.52;100330.08;1781139;79;21477;-69
2022/05/19 11:09:10;;;;;;;3.35;3.05;;;;;;;22.93;48.48;100319.42;1780776;79;21034;-70
2022/05/19 11:12:07;;;;;;;2.87;2.67;;;;;;;23.05;48.45;100320.80;1759222;79;21076;-70
2022/05/19 11:15:13;;;;;;;3.08;2.80;;;;;;;23.16;48.39;100322.14;1750098;81;21495;-70
2022/05/19 11:18:02;;;;;;;2.75;2.55;;;;;;;23.27;48.37;100311.52;1750014;81;21015;-71
2022/05/19 11:20:34;;;;;;;3.37;3.08;;;;;;;23.37;48.32;100321.21;1749944;82;21030;-69
2022/05/19 11:23:06;;;;;;;3.27;2.98;;;;;;;23.47;48.29;100318.73;1749602;81;21080;-69
2022/05/19 11:28:42;;;;;;;4.22;3.00;;;;;;;23.64;48.20;100303.91;1751174;80;21409;-70
2022/05/19 11:31:15;;;;;;;3.20;2.90;;;;;;;23.73;48.12;100295.65;1749950;82;21002;-69
2022/05/19 11:33:44;;;;;;;;;;;;;;;23.81;48.08;100303.16;1752611;81;21050;-70
2022/05/19 11:36:18;;;;;;;3.10;2.65;;;;;;;23.86;48.03;100301.36;1749992;82;20250;-71
2022/05/19 11:38:59;;;;;;;2.90;2.70;;;;;;;23.92;47.95;100305.00;1750227;82;21111;-70
2022/05/19 11:41:31;;;;;;;2.92;2.62;;;;;;;23.98;47.92;100295.88;1749774;82;21038;-70
2022/05/19 11:44:10;;;;;;;2.85;2.62;;;;;;;24.03;47.83;100287.00;1750916;80;21070;-70
2022/05/19 11:46:57;;;;;;;3.17;2.90;;;;;;;24.11;47.77;100287.98;1750014;82;21034;-70
2022/05/19 11:55:42;;;;;;;3.35;3.05;;;;;;;24.34;47.55;100276.16;1749567;81;20991;-71
2022/05/19 11:58:19;;;;;;;4.08;2.72;;;;;;;24.42;47.51;100278.45;1760850;81;21589;-70
2022/05/19 12:00:55;;;;;;;3.20;2.90;;;;;;;24.48;47.46;100269.31;1760249;81;21057;-70
2022/05/19 12:03:48;;;;;;;2.77;2.58;;;;;;;24.54;47.40;100266.18;1760584;81;21104;-69
2022/05/19 12:06:18;;;;;;;;;;;;;;;24.59;47.36;100280.36;1763217;81;21197;-69
2022/05/19 12:09:13;;;;;;;2.47;2.27;;;;;;;24.63;47.34;100270.13;1760593;81;20137;-71
2022/05/19 12:11:48;;;;;;;2.77;2.58;;;;;;;24.67;47.30;100275.35;1760612;81;20981;-71
2022/05/19 12:14:37;;;;;;;3.15;2.80;;;;;;;24.71;47.27;100271.61;1760546;81;21013;-70